createdAt,value
2019-03-12T00:00:52.090Z,73.70
2019-03-12T00:03:35.385Z,73.50
2019-03-12T00:06:01.174Z,73.40
2019-03-12T00:08:34.497Z,73.50
2019-03-12T00:11:08.697Z,73.40
2019-03-12T00:13:45.737Z,73.50
2019-03-12T00:16:18.177Z,73.40
2019-03-12T00:18:57.265Z,73.40
2019-03-12T00:21:46.767Z,73.50
2019-03-12T00:24:17.674Z,73.60
2019-03-12T00:26:50.595Z,73.60
2019-03-12T00:29:23.092Z,73.60
2019-03-12T00:31:58.167Z,73.60
2019-03-12T00:34:31.009Z,73.40
2019-03-12T00:37:01.915Z,73.40
2019-03-12T00:39:32.807Z,73.40
2019-03-12T00:42:09.976Z,73.40
2019-03-12T00:44:41.901Z,73.30
2019-03-12T00:47:20.684Z,73.30
2019-03-12T00:49:54.737Z,73.30
2019-03-12T00:52:36.568Z,73.10
2019-03-12T00:55:11.133Z,73.00
2019-03-12T00:57:42.882Z,73.00
2019-03-12T01:00:20.221Z,72.80
2019-03-12T01:02:57.340Z,72.80
2019-03-12T01:05:29.728Z,72.80
2019-03-12T01:08:01.663Z,72.70
2019-03-12T01:10:37.480Z,72.80
2019-03-12T01:13:16.450Z,72.80
2019-03-12T01:15:50.135Z,72.90
2019-03-12T01:18:22.219Z,72.90
2019-03-12T01:20:58.103Z,73.70
2019-03-12T01:23:30.521Z,73.10
2019-03-12T01:26:01.469Z,73.10
2019-03-12T01:28:34.355Z,73.00
2019-03-12T01:31:05.880Z,73.00
2019-03-12T01:33:40.052Z,73.80
2019-03-12T01:36:18.249Z,73.10
2019-03-12T01:38:51.296Z,73.10
2019-03-12T01:41:22.554Z,73.10
2019-03-12T01:43:53.798Z,73.00
2019-03-12T01:46:25.038Z,73.00
2019-03-12T01:48:56.401Z,73.00
2019-03-12T01:51:27.421Z,72.90
2019-03-12T01:53:58.581Z,72.80
2019-03-12T01:56:29.386Z,72.80
2019-03-12T01:59:02.599Z,72.70
2019-03-12T02:01:34.527Z,72.60
2019-03-12T02:04:06.697Z,72.60
2019-03-12T02:06:38.785Z,72.70
2019-03-12T02:09:11.357Z,72.70
2019-03-12T02:11:44.804Z,72.80
2019-03-12T02:14:29.972Z,72.80
2019-03-12T02:17:00.799Z,72.90
2019-03-12T02:19:31.697Z,72.70
2019-03-12T02:22:02.776Z,72.10
2019-03-12T02:24:35.411Z,72.70
2019-03-12T02:27:07.619Z,72.70
2019-03-12T02:29:41.917Z,72.70
2019-03-12T02:32:12.865Z,72.70
2019-03-12T02:34:44.068Z,72.70
2019-03-12T02:37:18.153Z,72.70
2019-03-12T02:39:53.627Z,72.70
2019-03-12T02:42:32.915Z,73.40
2019-03-12T02:45:01.010Z,72.50
2019-03-12T02:47:31.797Z,72.30
2019-03-12T02:50:06.295Z,72.20
2019-03-12T02:52:47.374Z,72.00
2019-03-12T02:55:22.575Z,71.80
2019-03-12T02:58:02.226Z,72.10
2019-03-12T03:00:38.677Z,72.40
2019-03-12T03:03:11.250Z,71.50
2019-03-12T03:06:04.603Z,71.30
2019-03-12T03:08:38.478Z,71.30
2019-03-12T03:11:11.021Z,71.10
2019-03-12T03:14:07.756Z,70.90
2019-03-12T03:16:38.894Z,71.10
2019-03-12T03:19:15.882Z,71.10
2019-03-12T03:22:00.594Z,71.00
2019-03-12T03:24:39.607Z,71.00
2019-03-12T03:27:12.901Z,70.80
2019-03-12T03:29:45.115Z,70.70
2019-03-12T03:32:17.091Z,70.60
2019-03-12T03:34:55.452Z,70.50
2019-03-12T03:37:41.198Z,70.50
2019-03-12T03:40:17.791Z,70.60
2019-03-12T03:42:55.086Z,70.60
2019-03-12T03:45:26.680Z,70.30
2019-03-12T03:48:03.466Z,70.40
2019-03-12T03:50:39.437Z,70.50
2019-03-12T03:53:20.854Z,70.40
2019-03-12T03:55:57.310Z,70.40
2019-03-12T03:58:44.401Z,70.60
2019-03-12T04:01:23.843Z,70.50
2019-03-12T04:04:02.344Z,70.50
2019-03-12T04:06:38.464Z,70.60
2019-03-12T04:09:12.855Z,70.70
2019-03-12T04:11:51.564Z,70.80
2019-03-12T04:14:25.208Z,70.70
2019-03-12T04:16:56.133Z,70.60
2019-03-12T04:19:45.453Z,70.70
2019-03-12T04:22:43.658Z,70.50
2019-03-12T04:25:32.962Z,70.50
2019-03-12T04:28:13.572Z,70.60
2019-03-12T04:30:51.219Z,70.80
2019-03-12T04:34:30.865Z,70.90
2019-03-12T04:37:12.200Z,71.00
2019-03-12T04:39:55.266Z,71.10
2019-03-12T04:42:32.509Z,71.10
2019-03-12T04:45:22.073Z,71.20
2019-03-12T04:47:59.441Z,71.30
2019-03-12T04:50:38.918Z,71.30
2019-03-12T04:53:19.022Z,71.50
2019-03-12T04:55:51.807Z,71.60
2019-03-12T04:58:28.021Z,71.70
2019-03-12T05:01:05.266Z,71.60
2019-03-12T05:03:46.205Z,71.60
2019-03-12T05:06:21.571Z,71.70
2019-03-12T05:09:01.343Z,71.60
2019-03-12T05:11:35.919Z,71.80
2019-03-12T05:14:58.140Z,71.50
2019-03-12T05:17:38.242Z,71.60
2019-03-12T05:20:24.827Z,71.60
2019-03-12T05:23:04.811Z,71.60
2019-03-12T05:25:50.739Z,71.60
2019-03-12T05:28:37.460Z,71.80
2019-03-12T05:31:08.043Z,71.80
2019-03-12T05:33:48.081Z,71.80
2019-03-12T05:36:27.354Z,71.80
2019-03-12T05:39:00.734Z,71.80
2019-03-12T05:41:32.902Z,71.80
2019-03-12T05:44:05.565Z,71.70
2019-03-12T05:46:40.395Z,71.80
2019-03-12T05:49:18.310Z,71.80
2019-03-12T05:51:50.497Z,71.70
2019-03-12T05:54:23.885Z,71.60
2019-03-12T05:56:58.672Z,71.70
2019-03-12T05:59:32.719Z,71.50
2019-03-12T06:02:06.333Z,71.50
2019-03-12T06:04:40.143Z,71.50
2019-03-12T06:07:18.233Z,71.50
2019-03-12T06:09:51.875Z,71.50
2019-03-12T06:12:24.764Z,71.30
2019-03-12T06:14:59.412Z,71.40
2019-03-12T06:17:30.483Z,71.40
2019-03-12T06:20:05.013Z,71.30
2019-03-12T06:22:38.644Z,71.40
2019-03-12T06:25:14.960Z,71.30
2019-03-12T06:27:47.100Z,71.40
2019-03-12T06:30:20.795Z,71.50
2019-03-12T06:33:06.164Z,71.40
2019-03-12T06:35:41.497Z,71.30
2019-03-12T06:38:20.950Z,71.20
2019-03-12T06:40:59.713Z,71.20
2019-03-12T06:43:55.399Z,71.20
2019-03-12T06:46:39.005Z,71.10
2019-03-12T06:49:15.066Z,71.20
2019-03-12T06:52:21.060Z,71.00
2019-03-12T06:55:15.180Z,71.10
2019-03-12T06:58:26.424Z,70.90
2019-03-12T07:01:08.095Z,70.70
2019-03-12T07:03:58.994Z,70.80
2019-03-12T07:07:06.843Z,70.70
2019-03-12T07:10:00.386Z,70.70
2019-03-12T07:13:03.518Z,70.50
2019-03-12T07:15:39.640Z,70.50
2019-03-12T07:18:36.094Z,70.40
2019-03-12T07:21:34.524Z,70.40
2019-03-12T07:24:23.225Z,70.40
2019-03-12T07:27:14.850Z,70.30
2019-03-12T07:30:13.154Z,70.30
2019-03-12T07:33:12.700Z,70.20
2019-03-12T07:36:02.600Z,71.10
2019-03-12T07:38:59.678Z,70.10
2019-03-12T07:41:37.991Z,70.00
2019-03-12T07:44:25.680Z,69.80
2019-03-12T07:47:14.554Z,69.70
2019-03-12T07:49:56.697Z,69.50
2019-03-12T07:52:53.403Z,69.60
2019-03-12T07:55:49.147Z,70.30
2019-03-12T07:58:47.916Z,69.30
2019-03-12T08:01:44.461Z,69.80
2019-03-12T08:05:09.972Z,69.00
2019-03-12T08:08:06.842Z,69.10
2019-03-12T08:10:51.213Z,69.10
2019-03-12T08:13:40.952Z,68.60
2019-03-12T08:16:29.691Z,68.20
2019-03-12T08:19:31.441Z,68.20
2019-03-12T08:22:33.099Z,67.70
2019-03-12T08:25:23.840Z,68.00
2019-03-12T08:28:00.380Z,67.90
2019-03-12T08:30:58.505Z,67.10
2019-03-12T08:34:10.025Z,66.80
2019-03-12T08:37:00.151Z,66.50
2019-03-12T08:41:38.919Z,66.10
2019-03-12T08:42:54.007Z,65.80
2019-03-12T08:45:37.709Z,65.40
2019-03-12T08:48:24.753Z,65.10
2019-03-12T08:51:12.771Z,64.80
2019-03-12T08:53:56.497Z,65.00
2019-03-12T08:56:54.234Z,64.40
2019-03-12T08:59:48.079Z,64.30
2019-03-12T09:02:43.099Z,64.20
2019-03-12T09:05:26.452Z,63.30
2019-03-12T09:08:18.590Z,62.90
2019-03-12T09:11:09.091Z,62.60
2019-03-12T09:14:07.994Z,61.70
2019-03-12T09:17:02.092Z,61.70
2019-03-12T09:19:44.889Z,60.70
2019-03-12T09:22:26.363Z,59.90
2019-03-12T09:25:38.144Z,59.50
2019-03-12T09:28:33.884Z,59.10
2019-03-12T09:31:15.623Z,58.20
2019-03-12T09:34:07.102Z,57.60
2019-03-12T09:37:02.826Z,57.60
2019-03-12T09:40:02.543Z,57.60
2019-03-12T09:43:12.271Z,57.60
2019-03-12T09:45:45.254Z,57.50
2019-03-12T09:48:33.805Z,57.80
2019-03-12T09:51:31.157Z,57.80
2019-03-12T09:54:34.204Z,57.60
2019-03-12T09:57:53.790Z,57.80
2019-03-12T10:00:48.744Z,57.80
2019-03-12T10:03:42.225Z,57.00
2019-03-12T10:06:32.346Z,56.00
2019-03-12T10:09:54.786Z,55.70
2019-03-12T10:12:53.502Z,56.00
2019-03-12T10:16:19.256Z,55.70
2019-03-12T10:19:14.119Z,55.70
2019-03-12T10:22:26.029Z,55.40
2019-03-12T10:25:29.835Z,55.60
2019-03-12T10:28:28.737Z,55.40
2019-03-12T10:31:21.842Z,54.60
2019-03-12T10:34:30.989Z,54.00
2019-03-12T10:37:21.179Z,53.20
2019-03-12T10:40:58.460Z,52.40
2019-03-12T10:43:55.549Z,51.80
2019-03-12T10:46:53.914Z,51.80
2019-03-12T10:49:47.598Z,52.10
2019-03-12T10:52:22.362Z,51.60
2019-03-12T10:55:13.425Z,50.90
2019-03-12T10:58:13.432Z,50.20
2019-03-12T11:00:52.824Z,49.60
2019-03-12T11:03:32.688Z,50.10
2019-03-12T11:06:13.600Z,50.70
2019-03-12T11:09:08.329Z,50.10
2019-03-12T11:11:46.720Z,50.40
2019-03-12T11:14:27.254Z,50.50
2019-03-12T11:17:02.263Z,50.30
2019-03-12T11:19:41.997Z,50.10
2019-03-12T11:22:20.715Z,50.10
2019-03-12T11:24:54.607Z,49.80
2019-03-12T11:27:31.879Z,50.10
2019-03-12T11:30:06.670Z,49.40
2019-03-12T11:33:00.549Z,49.00
2019-03-12T11:35:24.571Z,48.10
2019-03-12T11:38:12.299Z,47.50
2019-03-12T11:44:43.374Z,46.30
2019-03-12T11:47:36.424Z,45.80
2019-03-12T11:50:12.478Z,45.60
2019-03-12T11:53:00.090Z,45.40
2019-03-12T11:55:38.826Z,45.30
2019-03-12T11:58:22.569Z,44.90
2019-03-12T12:01:06.425Z,44.60
2019-03-12T12:03:38.717Z,44.60
2019-03-12T12:06:13.932Z,44.80
2019-03-12T12:08:49.278Z,44.60
2019-03-12T12:11:52.714Z,44.40
2019-03-12T12:14:18.737Z,44.20
2019-03-12T12:17:25.154Z,44.00
2019-03-12T12:20:00.391Z,44.20
2019-03-12T12:22:34.941Z,44.60
2019-03-12T12:25:37.413Z,43.80
2019-03-12T12:28:18.911Z,43.30
2019-03-12T12:30:52.033Z,43.30
2019-03-12T12:33:26.556Z,43.20
2019-03-12T12:36:04.124Z,43.40
2019-03-12T12:38:38.229Z,43.60
2019-03-12T12:41:16.966Z,43.50
2019-03-12T12:44:08.733Z,43.40
2019-03-12T12:46:46.067Z,43.50
2019-03-12T12:49:28.042Z,42.90
2019-03-12T12:52:19.529Z,42.90
2019-03-12T12:55:17.210Z,42.80
2019-03-12T12:57:50.356Z,42.50
2019-03-12T13:00:32.109Z,41.90
2019-03-12T13:03:13.267Z,41.40
2019-03-12T13:05:55.454Z,41.50
2019-03-12T13:08:30.760Z,41.70
2019-03-12T13:11:07.155Z,41.30
2019-03-12T13:13:42.216Z,41.10
2019-03-12T13:16:25.561Z,40.80
2019-03-12T13:18:59.895Z,40.70
2019-03-12T13:21:44.341Z,40.30
2019-03-12T13:24:35.538Z,40.10
2019-03-12T13:27:10.888Z,40.20
2019-03-12T13:29:59.615Z,40.00
2019-03-12T13:33:34.435Z,40.00
2019-03-12T13:39:21.549Z,40.40
2019-03-12T13:42:15.619Z,40.40
2019-03-12T13:45:02.225Z,40.30
2019-03-12T13:47:46.228Z,40.20
2019-03-12T13:50:18.397Z,40.30
2019-03-12T13:52:51.640Z,40.30
2019-03-12T13:55:35.128Z,40.40
2019-03-12T13:58:20.168Z,40.60
2019-03-12T14:00:56.317Z,40.60
2019-03-12T14:03:31.718Z,40.50
2019-03-12T14:06:02.708Z,40.70
2019-03-12T14:08:36.022Z,40.90
2019-03-12T14:11:08.116Z,41.20
2019-03-12T14:13:47.795Z,41.00
2019-03-12T14:16:17.296Z,40.80
2019-03-12T14:18:49.432Z,40.70
2019-03-12T14:21:29.038Z,41.20
2019-03-12T14:24:04.128Z,40.50
2019-03-12T14:26:35.463Z,40.50
2019-03-12T14:29:16.698Z,40.60
2019-03-12T14:31:47.801Z,40.80
2019-03-12T14:34:27.067Z,40.70
2019-03-12T14:37:05.605Z,40.70
2019-03-12T14:39:53.464Z,40.90
2019-03-12T14:42:53.814Z,40.90
2019-03-12T14:45:40.824Z,40.80
2019-03-12T14:49:02.181Z,40.80
2019-03-12T14:52:31.057Z,40.80
2019-03-12T14:55:36.878Z,40.60
2019-03-12T14:58:51.145Z,40.40
2019-03-12T15:02:18.820Z,40.60
2019-03-12T15:08:19.575Z,40.50
2019-03-12T15:11:04.901Z,40.20
2019-03-12T15:13:58.761Z,39.70
2019-03-12T15:16:57.544Z,39.60
2019-03-12T15:20:01.938Z,39.60
2019-03-12T15:22:46.952Z,39.50
2019-03-12T15:25:30.089Z,39.50
2019-03-12T15:28:27.011Z,39.70
2019-03-12T15:31:05.124Z,39.80
2019-03-12T15:33:45.613Z,40.10
2019-03-12T15:36:35.281Z,40.30
2019-03-12T15:39:14.624Z,40.80
2019-03-12T15:41:49.905Z,40.80
2019-03-12T15:44:23.629Z,41.10
2019-03-12T15:47:08.847Z,41.20
2019-03-12T15:50:04.407Z,41.30
2019-03-12T15:52:39.921Z,41.40
2019-03-12T15:55:30.349Z,41.50
2019-03-12T15:58:33.690Z,41.70
2019-03-12T16:01:15.526Z,41.60
2019-03-12T16:04:00.157Z,41.50
2019-03-12T16:06:38.445Z,41.40
2019-03-12T16:09:19.994Z,41.40
2019-03-12T16:12:10.311Z,41.20
2019-03-12T16:14:40.897Z,41.00
2019-03-12T16:17:45.423Z,40.90
2019-03-12T16:20:20.500Z,40.80
2019-03-12T16:22:59.076Z,40.60
2019-03-12T16:25:49.650Z,40.70
2019-03-12T16:28:31.786Z,41.40
2019-03-12T16:31:26.192Z,41.50
2019-03-12T16:34:11.722Z,41.50
2019-03-12T16:36:50.109Z,41.40
2019-03-12T16:39:29.882Z,41.50
2019-03-12T16:42:10.324Z,41.40
2019-03-12T16:45:19.401Z,41.60
2019-03-12T16:48:34.786Z,41.80
2019-03-12T16:51:52.684Z,42.00
2019-03-12T16:55:01.199Z,42.20
2019-03-12T16:57:51.803Z,42.50
2019-03-12T17:07:30.351Z,43.20
2019-03-12T17:10:53.923Z,43.40
2019-03-12T17:13:06.442Z,43.40
2019-03-12T17:17:04.127Z,43.60
2019-03-12T17:19:34.503Z,43.90
2019-03-12T17:22:47.704Z,43.90
2019-03-12T17:25:36.678Z,43.90
2019-03-12T17:31:09.576Z,44.10
2019-03-12T17:37:20.183Z,44.20
2019-03-12T17:40:12.834Z,44.20
2019-03-12T17:43:25.819Z,44.20
2019-03-12T17:46:13.705Z,44.20
2019-03-12T17:57:01.279Z,44.20
2019-03-12T17:58:46.357Z,44.20
2019-03-12T18:05:11.479Z,44.20
2019-03-12T18:08:39.261Z,44.10
2019-03-12T18:18:28.490Z,43.30
2019-03-12T18:21:26.671Z,43.40
2019-03-12T18:24:05.644Z,43.30
2019-03-12T18:26:42.566Z,43.40
2019-03-12T18:29:40.098Z,43.40
2019-03-12T18:32:22.601Z,43.50
2019-03-12T18:35:16.922Z,43.60
2019-03-12T18:37:43.802Z,43.70
2019-03-12T18:40:24.083Z,43.70
2019-03-12T18:43:03.177Z,43.80
2019-03-12T18:45:43.631Z,43.90
2019-03-12T18:48:44.520Z,43.90
2019-03-12T18:51:18.203Z,43.80
2019-03-12T18:53:52.542Z,43.70
2019-03-12T18:56:38.153Z,43.80
2019-03-12T18:59:18.755Z,43.60
2019-03-12T19:02:08.768Z,43.70
2019-03-12T19:05:12.044Z,44.40
2019-03-12T19:07:42.945Z,43.80
2019-03-12T19:10:26.176Z,43.90
2019-03-12T19:12:57.214Z,43.70
2019-03-12T19:15:29.634Z,43.60
2019-03-12T19:18:07.645Z,43.60
2019-03-12T19:20:42.753Z,43.50
2019-03-12T19:23:13.851Z,43.30
2019-03-12T19:25:44.726Z,43.20
2019-03-12T19:28:37.940Z,43.00
2019-03-12T19:31:38.463Z,43.00
2019-03-12T19:34:22.218Z,42.90
2019-03-12T19:37:00.495Z,42.70
2019-03-12T19:39:34.628Z,42.70
2019-03-12T19:42:07.034Z,42.30
2019-03-12T19:44:41.254Z,42.10
2019-03-12T19:57:48.494Z,41.70
2019-03-12T20:00:44.863Z,41.70
2019-03-12T20:04:06.125Z,41.60
2019-03-12T20:07:06.553Z,41.60
2019-03-12T20:10:57.829Z,41.60
2019-03-12T20:14:40.041Z,41.50
2019-03-12T20:18:31.840Z,41.20
2019-03-12T20:22:35.654Z,40.90
2019-03-12T20:26:12.857Z,40.60
2019-03-12T20:29:46.560Z,40.60
2019-03-12T20:33:24.263Z,40.50
2019-03-12T20:37:00.546Z,40.50
2019-03-12T20:40:29.805Z,40.30
2019-03-12T20:48:21.961Z,40.10
2019-03-12T20:51:47.024Z,40.20
2019-03-12T20:55:15.504Z,40.20
2019-03-12T20:58:53.678Z,40.10
2019-03-12T21:02:15.759Z,40.20
2019-03-12T21:05:26.202Z,40.20
2019-03-12T21:09:25.377Z,40.20
2019-03-12T21:12:53.682Z,40.40
2019-03-12T21:16:50.866Z,40.10
2019-03-12T21:20:18.711Z,40.20
2019-03-12T21:23:14.843Z,40.30
2019-03-12T21:26:51.644Z,40.20
2019-03-12T21:29:45.263Z,40.40
2019-03-12T21:32:27.646Z,40.20
2019-03-12T21:35:14.442Z,40.10
2019-03-12T21:38:26.529Z,39.80
2019-03-12T21:41:00.191Z,39.50
2019-03-12T21:43:35.786Z,39.10
2019-03-12T21:46:36.202Z,38.70
2019-03-12T21:49:54.965Z,38.70
2019-03-12T21:52:32.092Z,38.20
2019-03-12T21:55:17.790Z,38.20
2019-03-12T22:01:00.825Z,37.80
2019-03-12T22:04:03.541Z,37.70
2019-03-12T22:06:42.544Z,37.70
2019-03-12T22:09:46.969Z,37.40
2019-03-12T22:12:34.527Z,37.40
2019-03-12T22:15:34.237Z,37.30
2019-03-12T22:18:03.717Z,37.10
2019-03-12T22:20:35.823Z,37.00
2019-03-12T22:23:15.715Z,37.00
2019-03-12T22:25:46.811Z,37.10
2019-03-12T22:28:22.132Z,37.10
2019-03-12T22:30:54.524Z,37.10
2019-03-12T22:33:26.291Z,37.10
2019-03-12T22:36:00.266Z,37.10
2019-03-12T22:38:33.653Z,36.90
2019-03-12T22:41:11.468Z,36.60
2019-03-12T22:44:03.654Z,36.70
2019-03-12T22:46:35.761Z,36.70
2019-03-12T22:49:13.800Z,36.80
2019-03-12T22:51:46.372Z,36.80
2019-03-12T22:54:17.183Z,36.80
2019-03-12T22:56:48.337Z,36.90
2019-03-12T22:59:19.270Z,37.00
2019-03-12T23:01:50.729Z,37.00
2019-03-12T23:04:21.609Z,37.00
2019-03-12T23:06:55.492Z,36.80
2019-03-12T23:09:33.765Z,36.90
2019-03-12T23:12:09.644Z,36.90
2019-03-12T23:14:51.052Z,36.70
2019-03-12T23:17:21.897Z,36.80
2019-03-12T23:19:57.654Z,36.80
2019-03-12T23:22:39.604Z,36.80
2019-03-12T23:25:10.352Z,37.00
2019-03-12T23:27:41.203Z,36.90
2019-03-12T23:30:16.432Z,37.00
2019-03-12T23:32:47.790Z,37.00
2019-03-12T23:35:20.368Z,37.00
2019-03-12T23:37:51.382Z,37.00
2019-03-12T23:40:26.657Z,37.00
2019-03-12T23:42:57.651Z,37.00
2019-03-12T23:45:30.382Z,37.10
2019-03-12T23:48:07.782Z,37.00
2019-03-12T23:50:40.612Z,37.00
2019-03-12T23:53:11.292Z,37.00
2019-03-12T23:55:46.658Z,37.10
2019-03-12T23:58:17.440Z,37.10
